Florida A & M, Florida
Current Conditions -  °F | °C
As of 2:53 PM on Sunday 21 Dec 2014 (Local Time) from KTLH Reporting Station
Haze Haze  
Wind Chill: 58°   Ceiling: 400
Heat Index: 58°   Visibility: 3mi
Dew Point: 54°   Wind: 5mph
Humidity: 87%   Direction: 70°ENE
Pressure: 30.03"   Gusts: NA
Location:  30.4262°N, 84.2888°W
Report Text: KTLH 211953Z 07004KT 3SM BR OVC004 14/12 A3003 RMK AO2 SLP166 T01440122 $
Loading
Personal Weather Stations






























Interactive Weather Map New forecast layout! Learn more

10-Day Weather Forecast

Advertisements
Track Severe Weather on mobile